Time,TemperatureF,DewpointF,PressureIn,WindDirection,WindDirectionDegrees,WindSpeedMPH,WindSpeedGustMPH,Humidity,HourlyPrecipIn,Conditions,Clouds,dailyrainin,SoftwareType,DateUTC
2013-12-20 00:00:00,34.7,30.0,30.42,NNW,330,2.0,3.0,84,0.00,,,0.13,weatherlink.com 1.10,2013-12-20 05:00:00,
2013-12-20 00:15:00,35.2,31.0,30.41,NNW,330,2.0,3.0,83,0.00,,,0.13,weatherlink.com 1.10,2013-12-20 05:15:00,
2013-12-20 00:30:00,35.1,31.0,30.41,NNW,330,2.0,4.0,84,0.00,,,0.13,weatherlink.com 1.10,2013-12-20 05:30:00,
2013-12-20 00:45:00,35.2,31.0,30.40,NNW,330,2.0,4.0,84,0.00,,,0.13,weatherlink.com 1.10,2013-12-20 05:45:00,
2013-12-20 01:00:00,35.3,31.0,30.40,NNW,328,1.0,4.0,83,0.00,,,0.13,weatherlink.com 1.10,2013-12-20 06:00:00,
2013-12-20 01:15:00,35.4,31.0,30.39,NW,323,2.0,4.0,83,0.00,,,0.13,weatherlink.com 1.10,2013-12-20 06:15:00,
2013-12-20 01:30:00,36.4,31.0,30.39,NNW,343,2.0,4.0,82,0.00,,,0.13,weatherlink.com 1.10,2013-12-20 06:30:00,
2013-12-20 01:45:00,35.7,31.0,30.39,NW,322,1.0,4.0,84,0.00,,,0.13,weatherlink.com 1.10,2013-12-20 06:45:00,
2013-12-20 02:00:00,35.5,31.0,30.39,NNW,332,3.0,3.0,85,0.00,,,0.13,weatherlink.com 1.10,2013-12-20 07:00:00,
2013-12-20 02:15:00,34.9,31.0,30.40,NNW,335,2.0,4.0,86,0.00,,,0.13,weatherlink.com 1.10,2013-12-20 07:15:00,
2013-12-20 02:30:00,35.0,31.0,30.40,NNW,329,4.0,5.0,86,0.00,,,0.13,weatherlink.com 1.10,2013-12-20 07:30:00,
2013-12-20 02:45:00,35.6,32.0,30.39,NNW,335,3.0,5.0,85,0.00,,,0.13,weatherlink.com 1.10,2013-12-20 07:45:00,
2013-12-20 03:00:00,36.0,32.0,30.39,NNW,335,2.0,4.0,86,0.00,,,0.13,weatherlink.com 1.10,2013-12-20 08:00:00,
2013-12-20 03:15:00,35.9,32.0,30.38,NNW,330,3.0,4.0,86,0.00,,,0.13,weatherlink.com 1.10,2013-12-20 08:15:00,
2013-12-20 03:30:00,36.2,33.0,30.38,NW,323,3.0,4.0,87,0.00,,,0.00,weatherlink.com 1.10,2013-12-20 08:30:00,
2013-12-20 03:45:00,38.0,33.0,30.37,NNW,333,2.0,5.0,83,0.01,,,0.01,weatherlink.com 1.10,2013-12-20 08:45:00,
2013-12-20 04:00:00,37.5,33.0,30.37,NW,314,2.0,4.0,84,0.01,,,0.01,weatherlink.com 1.10,2013-12-20 09:00:00,
2013-12-20 04:15:00,38.1,33.0,30.36,NNE,12,1.0,3.0,82,0.01,,,0.01,weatherlink.com 1.10,2013-12-20 09:15:00,
2013-12-20 04:30:00,38.9,33.0,30.36,NNE,12,1.0,4.0,80,0.02,,,0.02,weatherlink.com 1.10,2013-12-20 09:30:00,
2013-12-20 04:46:00,40.0,33.0,30.36,SSW,212,0.0,3.0,77,0.01,,,0.02,weatherlink.com 1.10,2013-12-20 09:46:00,
2013-12-20 05:00:00,40.6,34.0,30.35,SW,221,2.0,8.0,76,0.02,,,0.03,weatherlink.com 1.10,2013-12-20 10:00:00,
2013-12-20 05:30:00,41.8,33.0,30.35,NNW,335,0.0,4.0,72,0.02,,,0.04,weatherlink.com 1.10,2013-12-20 10:30:00,
2013-12-20 05:45:00,42.0,33.0,30.35,WSW,256,0.0,5.0,71,0.03,,,0.05,weatherlink.com 1.10,2013-12-20 10:45:00,
2013-12-20 06:00:00,42.8,33.0,30.34,SE,132,2.0,7.0,69,0.02,,,0.05,weatherlink.com 1.10,2013-12-20 11:00:00,
2013-12-20 06:15:00,43.4,33.0,30.34,SSW,204,0.0,5.0,68,0.03,,,0.06,weatherlink.com 1.10,2013-12-20 11:15:00,
2013-12-20 06:30:00,43.9,34.0,30.33,South,189,6.0,8.0,68,0.03,,,0.07,weatherlink.com 1.10,2013-12-20 11:30:00,
2013-12-20 06:45:00,44.3,33.0,30.33,NE,49,5.0,13.0,65,0.03,,,0.08,weatherlink.com 1.10,2013-12-20 11:45:00,
2013-12-20 07:00:00,45.1,31.0,30.32,SSE,148,6.0,10.0,59,0.04,,,0.09,weatherlink.com 1.10,2013-12-20 12:00:00,
2013-12-20 07:15:00,46.3,30.0,30.33,NNW,345,3.0,12.0,53,0.05,,,0.11,weatherlink.com 1.10,2013-12-20 12:15:00,
2013-12-20 07:31:00,46.8,31.0,30.33,SE,131,5.0,13.0,55,0.05,,,0.12,weatherlink.com 1.10,2013-12-20 12:31:00,
2013-12-20 07:46:00,47.2,33.0,30.31,SW,214,4.0,15.0,59,0.05,,,0.13,weatherlink.com 1.10,2013-12-20 12:46:00,
2013-12-20 08:02:00,47.4,34.0,30.31,SW,231,1.0,14.0,61,0.04,,,0.14,weatherlink.com 1.10,2013-12-20 13:02:00,
2013-12-20 08:16:00,47.2,35.0,30.31,SW,226,2.0,13.0,62,0.05,,,0.16,weatherlink.com 1.10,2013-12-20 13:16:00,
2013-12-20 08:31:00,47.0,34.0,30.31,SSW,200,2.0,9.0,62,0.05,,,0.17,weatherlink.com 1.10,2013-12-20 13:31:00,
2013-12-20 08:46:00,47.1,34.0,30.31,SSE,149,0.0,12.0,60,0.04,,,0.17,weatherlink.com 1.10,2013-12-20 13:46:00,
2013-12-20 09:01:00,46.7,33.0,30.30,South,177,6.0,11.0,60,0.04,,,0.18,weatherlink.com 1.10,2013-12-20 14:01:00,
2013-12-20 09:16:00,47.2,32.0,30.30,South,187,1.0,8.0,57,0.02,,,0.18,weatherlink.com 1.10,2013-12-20 14:16:00,
2013-12-20 09:31:00,47.4,32.0,30.31,SW,221,3.0,9.0,56,0.01,,,0.18,weatherlink.com 1.10,2013-12-20 14:31:00,
2013-12-20 09:46:00,47.2,33.0,30.30,NNE,27,2.0,6.0,58,0.02,,,0.19,weatherlink.com 1.10,2013-12-20 14:46:00,
2013-12-20 10:01:00,47.5,33.0,30.29,SW,228,1.0,6.0,58,0.01,,,0.19,weatherlink.com 1.10,2013-12-20 15:01:00,
2013-12-20 10:16:00,48.0,34.0,30.28,NNW,344,0.0,11.0,58,0.01,,,0.19,weatherlink.com 1.10,2013-12-20 15:16:00,
2013-12-20 10:31:00,47.5,34.0,30.28,SSW,197,1.0,5.0,61,0.01,,,0.19,weatherlink.com 1.10,2013-12-20 15:31:00,
2013-12-20 10:46:00,48.9,34.0,30.28,NNW,345,4.0,9.0,56,0.00,,,0.19,weatherlink.com 1.10,2013-12-20 15:46:00,
2013-12-20 11:01:00,48.8,33.0,30.27,WNW,292,3.0,10.0,55,0.00,,,0.19,weatherlink.com 1.10,2013-12-20 16:01:00,
2013-12-20 11:16:00,49.0,35.0,30.26,SSW,211,6.0,12.0,58,0.00,,,0.19,weatherlink.com 1.10,2013-12-20 16:16:00,
2013-12-20 11:31:00,48.3,36.0,30.26,NE,47,1.0,11.0,63,0.01,,,0.20,weatherlink.com 1.10,2013-12-20 16:31:00,
2013-12-20 11:46:00,46.8,36.0,30.25,West,274,3.0,13.0,66,0.01,,,0.20,weatherlink.com 1.10,2013-12-20 16:46:00,
2013-12-20 12:01:00,45.9,37.0,30.24,NW,326,0.0,11.0,70,0.01,,,0.20,weatherlink.com 1.10,2013-12-20 17:01:00,
2013-12-20 12:16:00,45.0,37.0,30.24,SW,222,3.0,5.0,74,0.02,,,0.21,weatherlink.com 1.10,2013-12-20 17:16:00,
2013-12-20 12:31:00,45.4,36.0,30.23,NNW,340,1.0,10.0,71,0.01,,,0.21,weatherlink.com 1.10,2013-12-20 17:31:00,
2013-12-20 12:46:00,45.7,36.0,30.23,East,83,2.0,13.0,68,0.01,,,0.21,weatherlink.com 1.10,2013-12-20 17:46:00,
2013-12-20 13:01:00,44.7,35.0,30.23,SW,234,8.0,12.0,70,0.01,,,0.21,weatherlink.com 1.10,2013-12-20 18:01:00,
2013-12-20 13:16:00,44.7,36.0,30.23,South,187,5.0,14.0,71,0.00,,,0.21,weatherlink.com 1.10,2013-12-20 18:16:00,
2013-12-20 13:31:00,45.2,36.0,30.22,ENE,71,2.0,16.0,69,0.00,,,0.21,weatherlink.com 1.10,2013-12-20 18:31:00,
2013-12-20 13:46:00,45.7,37.0,30.22,South,186,8.0,17.0,71,0.00,,,0.21,weatherlink.com 1.10,2013-12-20 18:46:00,
2013-12-20 14:01:00,46.0,38.0,30.22,SSW,201,4.0,16.0,74,0.00,,,0.21,weatherlink.com 1.10,2013-12-20 19:01:00,
2013-12-20 14:16:00,46.1,39.0,30.21,East,90,6.0,13.0,77,0.00,,,0.21,weatherlink.com 1.10,2013-12-20 19:16:00,
2013-12-20 14:31:00,45.7,40.0,30.21,South,173,1.0,12.0,79,0.00,,,0.21,weatherlink.com 1.10,2013-12-20 19:31:00,
2013-12-20 14:46:00,45.6,40.0,30.21,ENE,71,5.0,25.0,80,0.00,,,0.21,weatherlink.com 1.10,2013-12-20 19:46:00,
2013-12-20 15:01:00,45.3,40.0,30.21,North,353,7.0,12.0,81,0.00,,,0.21,weatherlink.com 1.10,2013-12-20 20:01:00,
2013-12-20 15:16:00,45.8,41.0,30.20,SE,139,5.0,9.0,82,0.00,,,0.21,weatherlink.com 1.10,2013-12-20 20:16:00,
2013-12-20 15:31:00,46.0,41.0,30.21,NNW,335,7.0,11.0,81,0.00,,,0.21,weatherlink.com 1.10,2013-12-20 20:31:00,
2013-12-20 15:46:00,46.1,41.0,30.20,NW,314,2.0,9.0,81,0.00,,,0.21,weatherlink.com 1.10,2013-12-20 20:46:00,
2013-12-20 16:01:00,46.6,40.0,30.21,SE,125,7.0,18.0,77,0.00,,,0.21,weatherlink.com 1.10,2013-12-20 21:01:00,
2013-12-20 16:16:00,46.4,40.0,30.21,SSW,194,3.0,16.0,77,0.00,,,0.21,weatherlink.com 1.10,2013-12-20 21:16:00,
2013-12-20 16:31:00,45.8,39.0,30.20,SSE,153,6.0,12.0,78,0.00,,,0.21,weatherlink.com 1.10,2013-12-20 21:31:00,
2013-12-20 16:46:00,46.3,40.0,30.20,South,188,1.0,19.0,79,0.00,,,0.21,weatherlink.com 1.10,2013-12-20 21:46:00,
2013-12-20 17:01:00,46.5,40.0,30.21,SE,131,2.0,12.0,78,0.00,,,0.21,weatherlink.com 1.10,2013-12-20 22:01:00,
2013-12-20 17:16:00,46.8,40.0,30.22,WSW,246,5.0,17.0,76,0.00,,,0.21,weatherlink.com 1.10,2013-12-20 22:16:00,
2013-12-20 17:31:00,46.9,40.0,30.20,NNE,19,3.0,13.0,76,0.00,,,0.21,weatherlink.com 1.10,2013-12-20 22:31:00,
2013-12-20 17:46:00,47.1,40.0,30.20,NNW,336,1.0,12.0,76,0.00,,,0.21,weatherlink.com 1.10,2013-12-20 22:46:00,
2013-12-20 18:01:00,47.5,40.0,30.21,WNW,294,2.0,11.0,75,0.00,,,0.21,weatherlink.com 1.10,2013-12-20 23:01:00,
2013-12-20 18:16:00,47.7,40.0,30.21,NE,37,6.0,11.0,75,0.00,,,0.21,weatherlink.com 1.10,2013-12-20 23:16:00,
2013-12-20 18:31:00,47.7,40.0,30.21,NE,37,1.0,9.0,75,0.00,,,0.21,weatherlink.com 1.10,2013-12-20 23:31:00,
2013-12-20 18:46:00,47.8,40.0,30.21,South,184,8.0,15.0,75,0.00,,,0.21,weatherlink.com 1.10,2013-12-20 23:46:00,
2013-12-20 19:01:00,47.6,40.0,30.21,West,278,4.0,9.0,74,0.00,,,0.21,weatherlink.com 1.10,2013-12-21 00:01:00,
2013-12-20 19:16:00,47.9,40.0,30.21,SSW,193,3.0,10.0,75,0.00,,,0.21,weatherlink.com 1.10,2013-12-21 00:16:00,
2013-12-20 19:31:00,47.9,41.0,30.22,East,82,3.0,9.0,76,0.00,,,0.21,weatherlink.com 1.10,2013-12-21 00:31:00,
2013-12-20 19:46:00,47.4,40.0,30.22,South,190,1.0,12.0,75,0.00,,,0.21,weatherlink.com 1.10,2013-12-21 00:46:00,
2013-12-20 20:01:00,47.6,40.0,30.22,SSE,167,1.0,14.0,76,0.00,,,0.21,weatherlink.com 1.10,2013-12-21 01:01:00,
2013-12-20 20:17:00,47.3,41.0,30.22,South,173,3.0,9.0,79,0.00,,,0.21,weatherlink.com 1.10,2013-12-21 01:17:00,
2013-12-20 20:32:00,47.3,42.0,30.21,SW,218,7.0,15.0,81,0.00,,,0.21,weatherlink.com 1.10,2013-12-21 01:32:00,
2013-12-20 20:47:00,47.6,42.0,30.21,SE,132,4.0,10.0,81,0.00,,,0.21,weatherlink.com 1.10,2013-12-21 01:47:00,
2013-12-20 21:02:00,47.5,42.0,30.21,SW,215,6.0,11.0,80,0.00,,,0.21,weatherlink.com 1.10,2013-12-21 02:02:00,
2013-12-20 21:17:00,47.6,41.0,30.21,ENE,64,5.0,9.0,79,0.00,,,0.21,weatherlink.com 1.10,2013-12-21 02:17:00,
2013-12-20 21:32:00,47.8,42.0,30.20,SSW,197,2.0,16.0,80,0.00,,,0.21,weatherlink.com 1.10,2013-12-21 02:32:00,
2013-12-20 21:47:00,48.0,42.0,30.19,ENE,74,8.0,11.0,79,0.00,,,0.21,weatherlink.com 1.10,2013-12-21 02:47:00,
2013-12-20 22:02:00,48.6,42.0,30.20,SW,214,6.0,11.0,78,0.00,,,0.21,weatherlink.com 1.10,2013-12-21 03:02:00,
2013-12-20 22:17:00,49.3,42.0,30.20,NNE,19,6.0,14.0,77,0.00,,,0.21,weatherlink.com 1.10,2013-12-21 03:17:00,
2013-12-20 22:32:00,49.3,41.0,30.20,SW,228,5.0,15.0,74,0.00,,,0.21,weatherlink.com 1.10,2013-12-21 03:32:00,
2013-12-20 22:47:00,48.8,41.0,30.20,SSW,201,3.0,9.0,74,0.00,,,0.21,weatherlink.com 1.10,2013-12-21 03:47:00,
2013-12-20 23:02:00,47.8,43.0,30.20,ESE,118,2.0,13.0,82,0.00,,,0.21,weatherlink.com 1.10,2013-12-21 04:02:00,
2013-12-20 23:17:00,47.5,42.0,30.20,SW,217,0.0,10.0,80,0.00,,,0.21,weatherlink.com 1.10,2013-12-21 04:17:00,
2013-12-20 23:32:00,46.9,42.0,30.20,SSE,162,6.0,11.0,83,0.01,,,0.22,weatherlink.com 1.10,2013-12-21 04:32:00,
2013-12-20 23:47:00,47.1,41.0,30.19,ESE,103,2.0,11.0,80,0.01,,,0.22,weatherlink.com 1.10,2013-12-21 04:47:00,